Lady Nur — 3FFE2 — position and weather

sailwx.info

Track history (hours):
 
Tides and Currents Weather Stations Pressure Air Temp Water Temp Dewpoint Dewpoint Depression Visibility Wind Speed Wind Dir Waves Ship Positions

Lady Nur

Last reported at 2017-Jun-04 11:30 UTC. Time now 2017-Jun-27 14:07 UTC.
Position N 37°46' E 025°39'.
Warning: this ship's position is 23 days out of date.

Length 82 m; draft 4.6 m.

Type: Cargo ship. MMSI: 373237000.

Date/timePositionNaut miles runAvg speedWind from/ knotsBaromVisibWave heightAir tempDewpointWater temp
2017-Jun-04 11:30N 37°46' E 025°39'5 7.5
2017-Jun-04 10:51N 37°43' E 025°35'3 7.4
2017-Jun-04 10:30N 37°42' E 025°32'4 7.4
2017-Jun-04 10:00N 37°39' E 025°29'4 7.3
2017-Jun-04 09:31N 37°37' E 025°25'6 7.3
2017-Jun-04 08:43N 37°33' E 025°19'2 7.0
2017-Jun-04 08:30N 37°33' E 025°18'3 7.0
2017-Jun-04 08:00N 37°30' E 025°14'4 7.3
2017-Jun-04 07:30N 37°28' E 025°11'4 7.4
2017-Jun-04 07:00N 37°26' E 025°07'5 7.2
2017-Jun-04 06:15N 37°23' E 025°01'2 7.3
2017-Jun-04 06:00N 37°22' E 024°60'4 7.3
2017-Jun-04 05:30N 37°19' E 024°56'4 7.3
2017-Jun-04 05:00N 37°17' E 024°53'4 7.6
2017-Jun-04 04:30N 37°14' E 024°49'54 7.7
2017-Jun-03 21:28N 36°42' E 023°55'4 7.9
2017-Jun-03 21:00N 36°40' E 023°51'4 8.1
2017-Jun-03 20:30N 36°38' E 023°47'4 8.2
2017-Jun-03 20:00N 36°36' E 023°42'4 8.4
2017-Jun-03 19:31N 36°33' E 023°38'212 7.8
2017-Jun-02 16:13N 36°06' E 019°17'36 8.6
2017-Jun-02 12:05N 36°04' E 018°33'1 8.8
2017-Jun-02 11:58N 36°04' E 018°31'14 8.9
2017-Jun-02 10:20N 36°03' E 018°14'4 8.7
2017-Jun-02 09:55N 36°02' E 018°09'4 8.6
2017-Jun-02 09:25N 36°02' E 018°04'7 8.2
2017-Jun-02 08:35N 36°01' E 017°56'1 7.9
2017-Jun-02 08:26N 36°01' E 017°54'8 8.1
2017-Jun-02 07:24N 36°01' E 017°44'4 8.1
2017-Jun-02 06:51N 36°01' E 017°38'4 8.2
2017-Jun-02 06:20N 36°00' E 017°33'3 8.3
2017-Jun-02 05:55N 35°60' E 017°29'4 8.2
2017-Jun-02 05:27N 35°60' E 017°24'4 8.2
2017-Jun-02 04:58N 35°60' E 017°19'4 8.0
2017-Jun-02 04:29N 35°59' E 017°14'14 7.8
2017-Jun-02 02:45N 35°58' E 016°58'2 8.2
2017-Jun-02 02:30N 35°58' E 016°55'16 8.2
2017-Jun-02 00:32N 35°57' E 016°35'2 8.2
2017-Jun-02 00:14N 35°56' E 016°32'2 8.2
2017-Jun-01 23:58N 35°56' E 016°30'46 7.9
2017-Jun-01 18:12N 35°52' E 015°34'2 8.2
2017-Jun-01 17:58N 35°52' E 015°31'4 8.3
2017-Jun-01 17:30N 35°52' E 015°27'4 8.3
2017-Jun-01 16:59N 35°52' E 015°21'4 8.7
2017-Jun-01 16:30N 35°52' E 015°16'5 8.9
2017-Jun-01 15:59N 35°52' E 015°10'4 8.8
2017-Jun-01 15:30N 35°51' E 015°05'4 8.7
2017-Jun-01 15:00N 35°51' E 014°60'4 8.7
2017-Jun-01 14:30N 35°51' E 014°55'9 8.6
2017-Jun-01 13:30N 35°49' E 014°44'4 8.4
2017-Jun-01 13:00N 35°49' E 014°39'5 7.5
2017-Jun-01 12:23N 35°49' E 014°33'1 1.9
2017-Jun-01 12:00N 35°49' E 014°32'0 0.0
2017-Jun-01 11:30N 35°49' E 014°32'0 0.0
2017-Jun-01 11:00N 35°49' E 014°32'0 0.0
2017-Jun-01 10:30N 35°49' E 014°32'0 0.0
2017-Jun-01 09:36N 35°49' E 014°32'0 0.0
2017-Jun-01 06:42N 35°49' E 014°32'0 0.0
2017-Jun-01 06:21N 35°49' E 014°32'0 0.1
2017-Jun-01 06:00N 35°49' E 014°32'0 0.0
2017-Jun-01 04:48N 35°49' E 014°32'0 0.0
2017-Jun-01 04:30N 35°49' E 014°32'0 0.0
2017-Jun-01 03:48N 35°49' E 014°32'0 0.0
2017-Jun-01 03:30N 35°49' E 014°32'0 0.0
2017-Jun-01 02:57N 35°49' E 014°32'0 0.0
2017-Jun-01 01:36N 35°49' E 014°32'0 0.0
2017-Jun-01 01:27N 35°49' E 014°32'0 0.0
2017-Jun-01 00:48N 35°49' E 014°32'0 0.0
2017-May-31 22:54N 35°49' E 014°32'0 0.0
2017-May-31 22:06N 35°49' E 014°32'0 0.0
2017-May-31 22:00N 35°49' E 014°32'0 0.0
2017-May-31 21:30N 35°49' E 014°32'0 0.0
2017-May-31 20:57N 35°49' E 014°32'0 0.0
2017-May-31 20:27N 35°49' E 014°32'0 0.0
2017-May-31 20:00N 35°49' E 014°32'0 0.0
2017-May-31 19:30N 35°49' E 014°32'0 0.0
2017-May-31 11:59N 35°49' E 014°32'0 0.0
2017-May-31 11:29N 35°49' E 014°32'0 0.0
2017-May-31 10:59N 35°49' E 014°32'0 0.0
2017-May-31 09:23N 35°49' E 014°32'0 0.0
2017-May-31 08:59N 35°49' E 014°32'0 0.0
2017-May-31 08:29N 35°49' E 014°32'0 0.0
2017-May-31 07:59N 35°49' E 014°32'0 0.0
2017-May-31 07:29N 35°49' E 014°32'0 0.0
2017-May-31 06:59N 35°49' E 014°32'0 0.0
2017-May-31 06:29N 35°49' E 014°32'0 0.0
2017-May-31 05:59N 35°49' E 014°32'0 0.0
2017-May-31 04:52N 35°49' E 014°32'1 2.6
2017-May-31 04:30N 35°49' E 014°34'5 3.8
2017-May-31 03:10N 35°49' E 014°40'3 7.7
2017-May-31 02:45N 35°51' E 014°42'0 1.5
2017-May-31 02:27N 35°51' E 014°43'0 0.1
2017-May-31 02:00N 35°51' E 014°43'3 0.5
2017-May-30 19:32N 35°54' E 014°41'0 8.9
2017-May-30 19:30N 35°54' E 014°40'4 8.8
2017-May-30 19:00N 35°55' E 014°35'4 0.5
2017-May-30 10:28N 35°53' E 014°31'0 0.0
2017-May-30 09:58N 35°53' E 014°31'1 0.3
2017-May-30 05:21N 35°54' E 014°32'1 3.7
2017-May-30 05:00N 35°55' E 014°33'1 1.8
2017-May-30 04:30N 35°55' E 014°34'4 7.2
2017-May-30 04:00N 35°55' E 014°38'3 6.9
2017-May-30 03:30N 35°53' E 014°42'2 3.7
2017-May-30 02:58N 35°51' E 014°43'0 0.0
2017-May-30 02:30N 35°51' E 014°43'0 0.0
2017-May-30 02:00N 35°51' E 014°43'0 0.0
2017-May-30 01:30N 35°51' E 014°43'0 0.0
2017-May-30 01:00N 35°51' E 014°43'0 0.0
2017-May-29 20:43N 35°51' E 014°43'0 0.0
2017-May-29 20:27N 35°51' E 014°43'0 0.0
2017-May-29 18:32N 35°51' E 014°43'0 0.0
2017-May-29 18:30N 35°51' E 014°43'0 0.0
2017-May-29 16:02N 35°51' E 014°43'0 0.1
2017-May-29 15:54N 35°51' E 014°43'0 0.0
2017-May-29 15:18N 35°51' E 014°43'0 0.0
2017-May-29 15:00N 35°51' E 014°43'0 0.0
2017-May-29 14:00N 35°51' E 014°43'0 0.0
2017-May-29 13:27N 35°51' E 014°43'0 0.0
2017-May-29 13:00N 35°51' E 014°43'0 0.0
2017-May-29 12:12N 35°51' E 014°43'0 0.0
2017-May-29 11:56N 35°51' E 014°43'0 0.0
2017-May-29 11:26N 35°51' E 014°43'0 0.0
2017-May-29 10:59N 35°51' E 014°43'0 0.0
2017-May-29 10:23N 35°51' E 014°43'0 0.1
2017-May-29 09:44N 35°51' E 014°43'  
Track history (hours):
 
Tides and Currents Weather Stations Pressure Air Temp Water Temp Dewpoint Dewpoint Depression Visibility Wind Speed Wind Dir Waves Ship Positions

Lady Nur

Last reported at 2017-Jun-04 11:30 UTC. Time now 2017-Jun-27 14:07 UTC.
Position N 37°46' E 025°39'.
Warning: this ship's position is 23 days out of date.

Length 82 m; draft 4.6 m.

Type: Cargo ship. MMSI: 373237000.

Date/timePositionNaut miles runAvg speedWind from/ knotsBaromVisibWave heightAir tempDewpointWater temp
2017-Jun-04 11:30N 37°46' E 025°39'5 7.5
2017-Jun-04 10:51N 37°43' E 025°35'3 7.4
2017-Jun-04 10:30N 37°42' E 025°32'4 7.4
2017-Jun-04 10:00N 37°39' E 025°29'4 7.3
2017-Jun-04 09:31N 37°37' E 025°25'6 7.3
2017-Jun-04 08:43N 37°33' E 025°19'2 7.0
2017-Jun-04 08:30N 37°33' E 025°18'3 7.0
2017-Jun-04 08:00N 37°30' E 025°14'4 7.3
2017-Jun-04 07:30N 37°28' E 025°11'4 7.4
2017-Jun-04 07:00N 37°26' E 025°07'5 7.2
2017-Jun-04 06:15N 37°23' E 025°01'2 7.3
2017-Jun-04 06:00N 37°22' E 024°60'4 7.3
2017-Jun-04 05:30N 37°19' E 024°56'4 7.3
2017-Jun-04 05:00N 37°17' E 024°53'4 7.6
2017-Jun-04 04:30N 37°14' E 024°49'54 7.7
2017-Jun-03 21:28N 36°42' E 023°55'4 7.9
2017-Jun-03 21:00N 36°40' E 023°51'4 8.1
2017-Jun-03 20:30N 36°38' E 023°47'4 8.2
2017-Jun-03 20:00N 36°36' E 023°42'4 8.4
2017-Jun-03 19:31N 36°33' E 023°38'212 7.8
2017-Jun-02 16:13N 36°06' E 019°17'36 8.6
2017-Jun-02 12:05N 36°04' E 018°33'1 8.8
2017-Jun-02 11:58N 36°04' E 018°31'14 8.9
2017-Jun-02 10:20N 36°03' E 018°14'4 8.7
2017-Jun-02 09:55N 36°02' E 018°09'4 8.6
2017-Jun-02 09:25N 36°02' E 018°04'7 8.2
2017-Jun-02 08:35N 36°01' E 017°56'1 7.9
2017-Jun-02 08:26N 36°01' E 017°54'8 8.1
2017-Jun-02 07:24N 36°01' E 017°44'4 8.1
2017-Jun-02 06:51N 36°01' E 017°38'4 8.2
2017-Jun-02 06:20N 36°00' E 017°33'3 8.3
2017-Jun-02 05:55N 35°60' E 017°29'4 8.2
2017-Jun-02 05:27N 35°60' E 017°24'4 8.2
2017-Jun-02 04:58N 35°60' E 017°19'4 8.0
2017-Jun-02 04:29N 35°59' E 017°14'14 7.8
2017-Jun-02 02:45N 35°58' E 016°58'2 8.2
2017-Jun-02 02:30N 35°58' E 016°55'16 8.2
2017-Jun-02 00:32N 35°57' E 016°35'2 8.2
2017-Jun-02 00:14N 35°56' E 016°32'2 8.2
2017-Jun-01 23:58N 35°56' E 016°30'46 7.9
2017-Jun-01 18:12N 35°52' E 015°34'2 8.2
2017-Jun-01 17:58N 35°52' E 015°31'4 8.3
2017-Jun-01 17:30N 35°52' E 015°27'4 8.3
2017-Jun-01 16:59N 35°52' E 015°21'4 8.7
2017-Jun-01 16:30N 35°52' E 015°16'5 8.9
2017-Jun-01 15:59N 35°52' E 015°10'4 8.8
2017-Jun-01 15:30N 35°51' E 015°05'4 8.7
2017-Jun-01 15:00N 35°51' E 014°60'4 8.7
2017-Jun-01 14:30N 35°51' E 014°55'9 8.6
2017-Jun-01 13:30N 35°49' E 014°44'4 8.4
2017-Jun-01 13:00N 35°49' E 014°39'5 7.5
2017-Jun-01 12:23N 35°49' E 014°33'1 1.9
2017-Jun-01 12:00N 35°49' E 014°32'0 0.0
2017-Jun-01 11:30N 35°49' E 014°32'0 0.0
2017-Jun-01 11:00N 35°49' E 014°32'0 0.0
2017-Jun-01 10:30N 35°49' E 014°32'0 0.0
2017-Jun-01 09:36N 35°49' E 014°32'0 0.0
2017-Jun-01 06:42N 35°49' E 014°32'0 0.0
2017-Jun-01 06:21N 35°49' E 014°32'0 0.1
2017-Jun-01 06:00N 35°49' E 014°32'0 0.0
2017-Jun-01 04:48N 35°49' E 014°32'0 0.0
2017-Jun-01 04:30N 35°49' E 014°32'0 0.0
2017-Jun-01 03:48N 35°49' E 014°32'0 0.0
2017-Jun-01 03:30N 35°49' E 014°32'0 0.0
2017-Jun-01 02:57N 35°49' E 014°32'0 0.0
2017-Jun-01 01:36N 35°49' E 014°32'0 0.0
2017-Jun-01 01:27N 35°49' E 014°32'0 0.0
2017-Jun-01 00:48N 35°49' E 014°32'0 0.0
2017-May-31 22:54N 35°49' E 014°32'0 0.0
2017-May-31 22:06N 35°49' E 014°32'0 0.0
2017-May-31 22:00N 35°49' E 014°32'0 0.0
2017-May-31 21:30N 35°49' E 014°32'0 0.0
2017-May-31 20:57N 35°49' E 014°32'0 0.0
2017-May-31 20:27N 35°49' E 014°32'0 0.0
2017-May-31 20:00N 35°49' E 014°32'0 0.0
2017-May-31 19:30N 35°49' E 014°32'0 0.0
2017-May-31 11:59N 35°49' E 014°32'0 0.0
2017-May-31 11:29N 35°49' E 014°32'0 0.0
2017-May-31 10:59N 35°49' E 014°32'0 0.0
2017-May-31 09:23N 35°49' E 014°32'0 0.0
2017-May-31 08:59N 35°49' E 014°32'0 0.0
2017-May-31 08:29N 35°49' E 014°32'0 0.0
2017-May-31 07:59N 35°49' E 014°32'0 0.0
2017-May-31 07:29N 35°49' E 014°32'0 0.0
2017-May-31 06:59N 35°49' E 014°32'0 0.0
2017-May-31 06:29N 35°49' E 014°32'0 0.0
2017-May-31 05:59N 35°49' E 014°32'0 0.0
2017-May-31 04:52N 35°49' E 014°32'1 2.6
2017-May-31 04:30N 35°49' E 014°34'5 3.8
2017-May-31 03:10N 35°49' E 014°40'3 7.7
2017-May-31 02:45N 35°51' E 014°42'0 1.5
2017-May-31 02:27N 35°51' E 014°43'0 0.1
2017-May-31 02:00N 35°51' E 014°43'3 0.5
2017-May-30 19:32N 35°54' E 014°41'0 8.9
2017-May-30 19:30N 35°54' E 014°40'4 8.8
2017-May-30 19:00N 35°55' E 014°35'4 0.5
2017-May-30 10:28N 35°53' E 014°31'0 0.0
2017-May-30 09:58N 35°53' E 014°31'1 0.3
2017-May-30 05:21N 35°54' E 014°32'1 3.7
2017-May-30 05:00N 35°55' E 014°33'1 1.8
2017-May-30 04:30N 35°55' E 014°34'4 7.2
2017-May-30 04:00N 35°55' E 014°38'3 6.9
2017-May-30 03:30N 35°53' E 014°42'2 3.7
2017-May-30 02:58N 35°51' E 014°43'0 0.0
2017-May-30 02:30N 35°51' E 014°43'0 0.0
2017-May-30 02:00N 35°51' E 014°43'0 0.0
2017-May-30 01:30N 35°51' E 014°43'0 0.0
2017-May-30 01:00N 35°51' E 014°43'0 0.0
2017-May-29 20:43N 35°51' E 014°43'0 0.0
2017-May-29 20:27N 35°51' E 014°43'0 0.0
2017-May-29 18:32N 35°51' E 014°43'0 0.0
2017-May-29 18:30N 35°51' E 014°43'0 0.0
2017-May-29 16:02N 35°51' E 014°43'0 0.1
2017-May-29 15:54N 35°51' E 014°43'0 0.0
2017-May-29 15:18N 35°51' E 014°43'0 0.0
2017-May-29 15:00N 35°51' E 014°43'0 0.0
2017-May-29 14:00N 35°51' E 014°43'0 0.0
2017-May-29 13:27N 35°51' E 014°43'0 0.0
2017-May-29 13:00N 35°51' E 014°43'0 0.0
2017-May-29 12:12N 35°51' E 014°43'0 0.0
2017-May-29 11:56N 35°51' E 014°43'0 0.0
2017-May-29 11:26N 35°51' E 014°43'0 0.0
2017-May-29 10:59N 35°51' E 014°43'0 0.0
2017-May-29 10:23N 35°51' E 014°43'0 0.1
2017-May-29 09:44N 35°51' E 014°43'  

Dump ship's entire track history